Garfield, KY (40140)

12:41 PM CDT die 28o March, anno 2015 (GMT -0500)
Old Weldon | | Change Station
CLOSE
Current Station
Personal Weather Stations
Location: Brandenburg, KY
Elevation: 636 ft
Nearby Weather Stations

Elev 636 ft 37.97 °N, 86.13 °W | Updated 50 seconds ago

Serena
Serena
37.1 °F
Feels Like 37 °F
N
3.0
Ventus Variabilis Ventus from Eurus
Gusts 5.0 mph

Hodie
High -- | Low -- °F
--% Chance of Precip.
Yesterday
High -- | Low -- °F
Precip. -- in
6:36 AM 7:04 PM
Waxing Gibbous, 64% visible
Pressio 30.31 in
Visibilitas 10.0 milia passuum
Clouds Serena
Frigus Venti 37 °F
Frigus in quo Ros apparet 18 °F
Umor 46%
Rainfall 0.00 in
Snow Depth Not available.
UV 8 out of 12
Pollen 7.40 out of 12
Air Quality Not available.
Flu Activity Not available.
METAR KFTK 281658Z AUTO VRB05KT 10SM CLR 02/M08 A3028 RMK AO2 SLP264 T00151083

More Conditions Fewer Conditions

Pressio 30.31 in
Visibilitas 10.0 milia passuum
Clouds Serena
Frigus Venti 37 °F
Frigus in quo Ros apparet 18 °F
Umor 46%
Rainfall 0.00 in
Snow Depth Not available.
UV 8 out of 12
Pollen 7.40 out of 12
Air Quality Not available.
Flu Activity Not available.
METAR KFTK 281658Z AUTO VRB05KT 10SM CLR 02/M08 A3028 RMK AO2 SLP264 T00151083

More Conditions Fewer Conditions

10-Day Weather Forecast

Almanac

Astronomy

Mar. 28, 2015 Rise Set
Actual Time
Civil Twilight
Nautical Twilight
Astronomical Twilight
Moon
Length Of Visible Light
Length of Day
Tomorrow will be .
, % of the Moon is Illuminated

Today's Extremes

State Highs State Lows

Community

WunderPhotos

Upload Photos

1,809,034 photos uploaded!

WunderBlogs® & News

Nearby

Air Quality

  Air Quality AQ Index Pollutant
Not available.

Snow Depth

Station Depth Elevation

Earthquake Activity

City Distance Mag. Time & Date
Minimum magnitude displayed is 2.5.

Coastal Water Temperatures

Locus Calor

Stations

Nearby Weather Stations

Station Location Temp Frigus Venti Frigus in quo Ros apparet Umor Ventus Precip. Elev Renovata Type